Arcola, Louisiana
Current Conditions -  °F | °C
As of 12:15 PM on Thursday 29 Jan 2015 (Local Time) from KHDC Reporting Station
Scattered Clouds Scattered Clouds  
Wind Chill: 75°   Ceiling: Unl
Heat Index: 75°   Visibility: 10mi
Dew Point: 54°   Wind: 13mph
Humidity: 47%   Direction: 240°WSW
Pressure: 30.24"   Gusts: NA
Location:  30.7896°N, 90.5314°W
Report Text: KHDC 291815Z AUTO 24011KT 10SM SCT032 24/12 A3024 RMK AO2
Loading
Personal Weather Stations






























Interactive Weather Map New forecast layout! Learn more

10-Day Weather Forecast

Advertisements
Track Severe Weather on mobile